createdAt,value
2023-12-04T06:28:27.487Z,3.96
2023-12-04T06:30:31.174Z,4.26
2023-12-04T06:32:34.528Z,4.52
2023-12-04T06:34:38.296Z,4.72
2023-12-04T06:36:42.669Z,4.85
2023-12-04T06:38:49.933Z,5.00
2023-12-04T06:40:53.401Z,5.04
2023-12-04T06:42:55.857Z,5.11
2023-12-04T06:45:00.642Z,5.14
2023-12-04T06:47:04.431Z,5.20
2023-12-04T06:49:08.671Z,5.26
2023-12-04T06:51:11.779Z,5.29
2023-12-04T06:53:14.892Z,5.29
2023-12-04T06:55:17.816Z,5.34
2023-12-04T06:57:20.727Z,5.40
2023-12-04T06:59:23.675Z,5.38
2023-12-04T07:01:28.734Z,5.39
2023-12-04T07:03:31.719Z,5.45
2023-12-04T07:05:34.626Z,5.45
2023-12-04T07:07:37.425Z,5.45
2023-12-04T07:09:41.695Z,5.51
2023-12-04T07:11:44.912Z,5.58
2023-12-04T07:13:47.857Z,5.57
2023-12-04T07:15:50.768Z,5.55
2023-12-04T07:17:56.769Z,5.56
2023-12-04T07:20:00.581Z,5.56
2023-12-04T07:22:03.570Z,5.56
2023-12-04T07:24:06.888Z,5.54
2023-12-04T07:26:10.013Z,5.57
2023-12-04T07:28:13.055Z,5.59
2023-12-04T07:30:19.229Z,5.62
2023-12-04T07:32:22.341Z,5.63
2023-12-04T07:34:26.647Z,5.63
2023-12-04T07:36:29.945Z,5.64
2023-12-04T07:38:33.115Z,5.62
2023-12-04T07:40:36.087Z,5.61
2023-12-04T07:42:38.322Z,5.60
2023-12-04T07:44:41.309Z,5.63
2023-12-04T07:46:44.299Z,5.63
2023-12-04T07:48:47.502Z,5.64
2023-12-04T07:50:51.957Z,5.61
2023-12-04T07:52:54.960Z,5.63
2023-12-04T07:54:57.989Z,5.66
2023-12-04T07:57:01.246Z,5.71
2023-12-04T07:59:04.264Z,5.75
2023-12-04T08:01:08.066Z,5.70
2023-12-04T08:03:11.135Z,5.66
2023-12-04T08:05:14.726Z,5.68
2023-12-04T08:07:19.063Z,5.68
2023-12-04T08:09:21.974Z,5.68
2023-12-04T08:11:24.938Z,5.68
2023-12-04T08:13:28.904Z,5.71
2023-12-04T08:15:30.773Z,5.73
2023-12-04T08:17:33.855Z,5.71
2023-12-04T08:19:38.937Z,5.65
2023-12-04T08:21:41.978Z,5.67
2023-12-04T08:23:45.592Z,5.65
2023-12-04T08:25:48.486Z,5.67
2023-12-04T08:27:52.420Z,5.70
2023-12-04T08:29:55.372Z,5.75
2023-12-04T08:31:58.223Z,5.75
2023-12-04T08:34:01.277Z,5.75
2023-12-04T08:36:04.988Z,5.76
2023-12-04T08:38:08.084Z,5.75
2023-12-04T08:40:13.872Z,5.78
2023-12-04T08:42:21.568Z,5.80
2023-12-04T08:44:27.141Z,5.85
2023-12-04T08:46:30.325Z,5.91
2023-12-04T08:48:33.949Z,5.94
2023-12-04T08:50:38.055Z,5.93
2023-12-04T08:52:42.729Z,5.89
2023-12-04T08:54:45.951Z,5.88
2023-12-04T08:56:50.437Z,5.91
2023-12-04T08:58:53.517Z,5.92
2023-12-04T09:00:56.465Z,5.91
2023-12-04T09:03:08.115Z,5.95
2023-12-04T09:05:13.861Z,5.97
2023-12-04T09:09:23.404Z,5.99
2023-12-04T09:11:26.365Z,5.97
2023-12-04T09:13:32.822Z,6.02
2023-12-04T09:15:36.075Z,6.03
2023-12-04T09:19:43.141Z,6.02
2023-12-04T09:21:47.009Z,6.01
2023-12-04T09:23:51.211Z,6.05
2023-12-04T09:25:54.576Z,6.08
2023-12-04T09:27:57.924Z,6.10
2023-12-04T09:30:02.314Z,6.07
2023-12-04T09:32:04.527Z,6.01
2023-12-04T09:34:09.286Z,6.00
2023-12-04T09:36:12.515Z,6.02
2023-12-04T09:38:15.487Z,6.04
2023-12-04T09:40:18.743Z,6.07
2023-12-04T09:42:21.897Z,6.05
2023-12-04T09:44:26.408Z,6.05
2023-12-04T09:46:31.585Z,6.05
2023-12-04T09:48:36.271Z,6.05
2023-12-04T09:50:40.600Z,6.04
2023-12-04T09:52:43.832Z,6.02
2023-12-04T09:54:46.796Z,6.03
2023-12-04T09:56:51.120Z,6.05
2023-12-04T09:59:00.075Z,6.07
2023-12-04T10:01:03.755Z,6.09
2023-12-04T10:03:08.362Z,6.09
2023-12-04T10:05:10.733Z,6.08
2023-12-04T10:07:13.997Z,6.06
2023-12-04T10:09:19.323Z,6.12
2023-12-04T10:11:22.920Z,6.18
2023-12-04T10:13:55.962Z,6.22
2023-12-04T10:15:50.089Z,6.27
2023-12-04T10:17:53.237Z,6.27
2023-12-04T10:20:11.912Z,6.26
2023-12-04T10:22:15.387Z,6.25
2023-12-04T10:24:32.788Z,6.24
2023-12-04T10:26:35.880Z,6.24
2023-12-04T10:28:40.010Z,6.28
2023-12-04T10:30:43.296Z,6.33
2023-12-04T10:32:46.206Z,6.38
2023-12-04T10:34:50.276Z,6.40
2023-12-04T10:36:54.961Z,6.40
2023-12-04T10:39:01.740Z,6.38
2023-12-04T10:41:14.603Z,6.36
2023-12-04T10:43:18.686Z,6.35
2023-12-04T10:45:23.761Z,6.31
2023-12-04T10:47:27.792Z,6.31
2023-12-04T10:49:30.982Z,6.28
2023-12-04T10:51:35.380Z,6.31
2023-12-04T10:53:42.159Z,6.33
2023-12-04T10:55:47.097Z,6.35
2023-12-04T10:57:53.766Z,6.31
2023-12-04T10:59:59.443Z,6.31
2023-12-04T11:02:04.770Z,6.32
2023-12-04T11:04:12.423Z,6.32
2023-12-04T11:06:18.908Z,6.31
2023-12-04T11:08:24.086Z,6.29
2023-12-04T11:10:31.716Z,6.28
2023-12-04T11:12:34.477Z,6.25
2023-12-04T11:14:46.283Z,6.28
2023-12-04T11:16:51.060Z,6.30
2023-12-04T11:19:05.854Z,6.31
2023-12-04T11:21:11.517Z,6.30
2023-12-04T11:23:17.085Z,6.33
2023-12-04T11:25:20.054Z,6.31
2023-12-04T11:27:25.369Z,6.31
2023-12-04T11:29:29.342Z,6.31
2023-12-04T11:31:32.639Z,6.30
2023-12-04T11:33:38.055Z,6.27
2023-12-04T11:35:41.222Z,6.25
2023-12-04T11:37:44.503Z,6.25
2023-12-04T11:39:49.247Z,6.26
2023-12-04T11:41:52.346Z,6.25
2023-12-04T11:43:57.242Z,6.26
2023-12-04T11:46:10.546Z,6.27
2023-12-04T11:48:13.650Z,6.26
2023-12-04T11:50:17.021Z,6.27
2023-12-04T11:52:34.881Z,6.27
2023-12-04T11:55:01.288Z,6.21
2023-12-04T11:57:23.668Z,6.17
2023-12-04T11:59:28.436Z,6.15
2023-12-04T12:01:35.501Z,6.09
2023-12-04T12:03:39.080Z,6.08
2023-12-04T12:05:43.412Z,6.05
2023-12-04T12:07:45.891Z,6.03
2023-12-04T12:09:50.159Z,6.07
2023-12-04T12:11:54.123Z,6.08
2023-12-04T12:13:57.325Z,6.11
2023-12-04T12:16:03.346Z,6.12
2023-12-04T12:18:08.705Z,6.16
2023-12-04T12:20:14.107Z,6.18
2023-12-04T12:22:17.266Z,6.19
2023-12-04T12:24:20.660Z,6.18
2023-12-04T12:26:24.257Z,6.18
2023-12-04T12:28:27.288Z,6.18
2023-12-04T12:30:30.242Z,6.23
2023-12-04T12:32:35.601Z,6.24
2023-12-04T12:34:38.589Z,6.24
2023-12-04T12:36:42.789Z,6.24
2023-12-04T12:38:50.611Z,6.24
2023-12-04T12:40:53.745Z,6.22
2023-12-04T12:43:08.431Z,6.24
2023-12-04T12:45:13.893Z,6.26
2023-12-04T12:47:17.435Z,6.25
2023-12-04T12:51:28.652Z,6.21
2023-12-04T12:53:35.032Z,6.24
2023-12-04T12:55:40.288Z,6.26
2023-12-04T12:57:43.602Z,6.25
2023-12-04T12:59:46.756Z,6.27
2023-12-04T13:01:50.504Z,6.25
2023-12-04T13:03:53.947Z,6.21
2023-12-04T13:05:58.719Z,6.20
2023-12-04T13:08:01.904Z,6.18
2023-12-04T13:10:06.211Z,6.20
2023-12-04T13:12:11.187Z,6.21
2023-12-04T13:14:14.527Z,6.14
2023-12-04T13:16:17.920Z,6.15
2023-12-04T13:18:20.866Z,6.10
2023-12-04T13:20:24.545Z,6.09
2023-12-04T13:22:30.259Z,6.08
2023-12-04T13:24:33.514Z,6.07
2023-12-04T13:26:36.584Z,6.06
2023-12-04T13:28:44.248Z,6.05
2023-12-04T13:30:48.100Z,6.02
2023-12-04T13:32:51.613Z,6.02
2023-12-04T13:34:56.557Z,6.01
2023-12-04T13:37:00.237Z,6.02
2023-12-04T13:39:05.459Z,5.98
2023-12-04T13:41:40.837Z,5.95
2023-12-04T13:43:51.612Z,5.98
2023-12-04T13:45:56.001Z,5.99
2023-12-04T13:47:59.179Z,5.99
2023-12-04T13:50:02.653Z,5.96
2023-12-04T13:52:09.261Z,5.93
2023-12-04T13:54:21.991Z,5.91
2023-12-04T13:56:42.678Z,5.96
2023-12-04T13:58:46.162Z,6.04
2023-12-04T14:00:49.169Z,6.08
2023-12-04T14:02:54.871Z,6.08
2023-12-04T14:04:58.158Z,6.06
2023-12-04T14:07:04.494Z,6.02
2023-12-04T14:09:11.586Z,6.03
2023-12-04T14:11:16.574Z,6.03
2023-12-04T14:13:19.919Z,6.01
2023-12-04T14:15:23.232Z,5.97
2023-12-04T14:17:26.172Z,6.00
2023-12-04T14:19:29.244Z,6.02
2023-12-04T14:21:32.167Z,6.00
2023-12-04T14:23:35.385Z,6.02
2023-12-04T14:25:38.426Z,6.02
2023-12-04T14:27:44.517Z,6.04
2023-12-04T14:29:47.466Z,6.05
2023-12-04T14:31:51.372Z,6.05
2023-12-04T14:33:54.915Z,6.05
2023-12-04T14:35:58.251Z,6.01
2023-12-04T14:38:01.292Z,6.01
2023-12-04T14:40:05.740Z,6.02
2023-12-04T14:42:08.973Z,6.07
2023-12-04T14:44:12.318Z,6.07
2023-12-04T14:46:15.281Z,6.01
2023-12-04T14:48:18.171Z,5.96
2023-12-04T14:50:21.828Z,5.95
2023-12-04T14:52:24.777Z,5.96
2023-12-04T14:54:38.733Z,6.00
2023-12-04T14:57:01.160Z,5.99
2023-12-04T14:59:20.978Z,5.96
2023-12-04T15:04:47.218Z,5.92
2023-12-04T15:07:22.345Z,5.93
2023-12-04T15:10:07.600Z,5.93
2023-12-04T15:12:23.537Z,5.92
2023-12-04T15:14:37.259Z,5.95
2023-12-04T15:16:46.304Z,5.93
2023-12-04T15:19:15.658Z,5.90
2023-12-04T15:21:19.283Z,5.90
2023-12-04T15:23:22.404Z,5.88
2023-12-04T15:25:25.048Z,5.88
2023-12-04T15:27:27.997Z,5.94
2023-12-04T15:29:31.415Z,5.98
2023-12-04T15:31:34.562Z,5.95
2023-12-04T15:33:36.766Z,5.92
2023-12-04T15:35:39.592Z,5.94
2023-12-04T15:37:42.782Z,5.98
2023-12-04T15:39:45.633Z,6.00
2023-12-04T15:41:47.649Z,6.02
2023-12-04T15:43:50.529Z,6.01
2023-12-04T15:45:52.518Z,6.00
2023-12-04T15:47:55.524Z,5.98
2023-12-04T15:49:59.191Z,5.97
2023-12-04T15:52:02.158Z,5.99
2023-12-04T15:54:07.141Z,6.00
2023-12-04T15:56:11.107Z,6.02
2023-12-04T15:58:13.167Z,5.99
2023-12-04T16:00:17.224Z,5.99
2023-12-04T16:02:19.786Z,6.00
2023-12-04T16:04:22.851Z,6.03
2023-12-04T16:06:25.933Z,6.04
2023-12-04T16:08:28.957Z,6.07
2023-12-04T16:10:33.182Z,6.11
2023-12-04T16:12:36.285Z,6.11
2023-12-04T16:14:39.219Z,6.14
2023-12-04T16:16:42.113Z,6.18
2023-12-04T16:18:45.298Z,6.18
2023-12-04T16:20:48.732Z,6.13
2023-12-04T16:22:50.695Z,6.13
2023-12-04T16:24:53.689Z,6.16
2023-12-04T16:26:58.086Z,6.16
2023-12-04T16:29:02.263Z,6.19
2023-12-04T16:31:07.200Z,6.23
2023-12-04T16:33:11.025Z,6.25
2023-12-04T16:35:14.097Z,6.27
2023-12-04T16:37:17.283Z,6.29
2023-12-04T16:39:20.119Z,6.30
2023-12-04T16:41:22.978Z,6.30
2023-12-04T16:43:27.255Z,6.30
2023-12-04T16:45:30.179Z,6.27
2023-12-04T16:47:33.327Z,6.27
2023-12-04T16:49:36.500Z,6.27
2023-12-04T16:51:40.245Z,6.27
2023-12-04T16:53:43.294Z,6.30
2023-12-04T16:55:46.314Z,6.34
2023-12-04T16:57:49.442Z,6.36
2023-12-04T16:59:53.920Z,6.38
2023-12-04T17:01:58.180Z,6.38
2023-12-04T17:04:01.277Z,6.40
2023-12-04T17:06:05.013Z,6.42
2023-12-04T17:08:08.100Z,6.44
2023-12-04T17:10:11.536Z,6.46
2023-12-04T17:12:13.929Z,6.44
2023-12-04T17:14:17.884Z,6.41
2023-12-04T17:16:22.292Z,6.42
2023-12-04T17:18:25.158Z,6.38
2023-12-04T17:20:28.318Z,6.37
2023-12-04T17:22:33.979Z,6.37
2023-12-04T17:24:36.971Z,6.36
2023-12-04T17:26:39.880Z,6.37
2023-12-04T17:28:42.672Z,6.38
2023-12-04T17:30:45.521Z,6.41
2023-12-04T17:32:50.189Z,6.42
2023-12-04T17:34:53.250Z,6.45
2023-12-04T17:36:56.302Z,6.43
2023-12-04T17:38:59.095Z,6.42
2023-12-04T17:41:02.038Z,6.43
2023-12-04T17:43:04.891Z,6.39
2023-12-04T17:45:09.555Z,6.42
2023-12-04T17:47:13.144Z,6.46
2023-12-04T17:49:17.779Z,6.48
2023-12-04T17:51:20.827Z,6.48
2023-12-04T17:53:23.652Z,6.49
2023-12-04T17:55:26.519Z,6.47
2023-12-04T17:57:29.454Z,6.49
2023-12-04T17:59:31.444Z,6.51
2023-12-04T18:01:34.301Z,6.53
2023-12-04T18:03:37.494Z,6.55
2023-12-04T18:05:41.487Z,6.58
2023-12-04T18:07:45.045Z,6.60
2023-12-04T18:09:47.838Z,6.61
2023-12-04T18:11:53.013Z,6.62
2023-12-04T18:13:55.029Z,6.62
2023-12-04T18:15:58.434Z,6.65
2023-12-04T18:18:01.664Z,6.64
2023-12-04T18:20:04.933Z,6.65
2023-12-04T18:22:09.099Z,6.67
2023-12-04T18:24:11.924Z,6.68
2023-12-04T18:26:16.069Z,6.69
2023-12-04T18:28:19.486Z,6.69
2023-12-04T18:30:23.185Z,6.69
2023-12-04T18:32:25.739Z,6.72
2023-12-04T18:34:29.344Z,6.74
2023-12-04T18:36:37.395Z,6.75
2023-12-04T18:38:51.780Z,6.77
2023-12-04T18:40:54.304Z,6.78
2023-12-04T18:43:00.359Z,6.79
2023-12-04T18:45:03.929Z,6.78
2023-12-04T18:47:10.574Z,6.79
2023-12-04T18:49:14.750Z,6.80
2023-12-04T18:51:18.896Z,6.83
2023-12-04T18:53:21.330Z,6.82
2023-12-04T18:55:25.483Z,6.83
2023-12-04T18:57:28.328Z,6.84
2023-12-04T18:59:31.157Z,6.86
2023-12-04T19:01:36.022Z,6.87
2023-12-04T19:03:39.071Z,6.88
2023-12-04T19:05:42.012Z,6.88
2023-12-04T19:07:44.872Z,6.89
2023-12-04T19:09:47.770Z,6.89
2023-12-04T19:11:51.015Z,6.90
2023-12-04T19:13:53.999Z,6.92
2023-12-04T19:15:57.660Z,6.91
2023-12-04T19:18:00.706Z,6.92
2023-12-04T19:20:02.938Z,6.93
2023-12-04T19:22:05.918Z,6.92
2023-12-04T19:24:09.370Z,6.94
2023-12-04T19:26:12.253Z,6.94
2023-12-04T19:28:15.458Z,6.96
2023-12-04T19:30:18.491Z,6.97
2023-12-04T19:32:22.832Z,6.97
2023-12-04T19:34:26.890Z,6.99
2023-12-04T19:36:29.837Z,6.98
2023-12-04T19:38:32.728Z,6.99
2023-12-04T19:40:35.575Z,6.99
2023-12-04T19:42:39.266Z,7.01
2023-12-04T19:44:46.757Z,6.99
2023-12-04T19:46:49.522Z,7.03
2023-12-04T19:48:51.825Z,7.04
2023-12-04T19:50:56.844Z,7.04
2023-12-04T19:52:59.882Z,7.04
2023-12-04T19:55:02.880Z,7.04
2023-12-04T19:57:05.915Z,7.05
2023-12-04T19:59:08.707Z,7.06
2023-12-04T20:01:13.655Z,7.05
2023-12-04T20:03:16.731Z,7.05
2023-12-04T20:05:20.683Z,7.07
2023-12-04T20:07:23.795Z,7.07
2023-12-04T20:09:26.699Z,7.10
2023-12-04T20:11:29.669Z,7.11
2023-12-04T20:13:35.468Z,7.11
2023-12-04T20:15:38.764Z,7.10
2023-12-04T20:17:43.626Z,7.09
2023-12-04T20:19:46.448Z,7.11
2023-12-04T20:21:48.374Z,7.11
2023-12-04T20:23:51.437Z,7.13
2023-12-04T20:25:54.264Z,7.12
2023-12-04T20:27:57.526Z,7.14
2023-12-04T20:30:00.501Z,7.14
2023-12-04T20:32:03.436Z,7.14
2023-12-04T20:34:07.807Z,7.15
2023-12-04T20:36:13.806Z,7.16
2023-12-04T20:38:17.090Z,7.17
2023-12-04T20:40:22.060Z,7.18
2023-12-04T20:42:24.971Z,7.18
2023-12-04T20:44:27.831Z,7.19
2023-12-04T20:46:30.644Z,7.16
2023-12-04T20:48:32.970Z,7.17
2023-12-04T20:50:37.508Z,7.17
2023-12-04T20:52:40.526Z,7.20
2023-12-04T20:54:43.459Z,7.19
2023-12-04T20:56:46.278Z,7.20
2023-12-04T20:58:49.085Z,7.21
2023-12-04T21:00:51.032Z,7.21
2023-12-04T21:02:53.944Z,7.21
2023-12-04T21:04:57.035Z,7.20
2023-12-04T21:07:03.402Z,7.21
2023-12-04T21:09:07.498Z,7.21
2023-12-04T21:11:10.516Z,7.21
2023-12-04T21:13:13.336Z,7.21
2023-12-04T21:15:16.284Z,7.21
2023-12-04T21:17:19.322Z,7.21
2023-12-04T21:19:22.560Z,7.20
2023-12-04T21:21:25.507Z,7.21
2023-12-04T21:23:29.730Z,7.23
2023-12-04T21:25:32.631Z,7.23
2023-12-04T21:27:35.598Z,7.22
2023-12-04T21:29:38.589Z,7.21
2023-12-04T21:31:41.499Z,7.20
2023-12-04T21:33:44.706Z,7.20
2023-12-04T21:35:46.575Z,7.22
